Time;durP1;ratioP1;P1;durP2;ratioP2;P2;SDS_P1;SDS_P2;PMS_P1;PMS_P2;Temp;Humidity;BMP_temperature;BMP_pressure;BME280_temperature;BME280_humidity;BME280_pressure;Samples;Min_cycle;Max_cycle;Signal;HPM_P1;HPM_P2
2021/08/15 00:00:31;;;;;;;;;2.00;2.00;;;;;28.65;66.10;98630.59;5053062;28;8956;-69
2021/08/15 00:02:59;;;;;;;;;3.00;3.00;;;;;28.70;65.64;98640.28;5052724;28;8842;-70
2021/08/15 00:05:28;;;;;;;;;2.75;2.75;;;;;28.72;65.58;98646.88;5052681;28;8850;-70
2021/08/15 00:07:57;;;;;;;;;3.75;3.75;;;;;28.73;65.74;98644.94;5052626;28;8838;-70
2021/08/15 00:10:26;;;;;;;;;2.00;2.00;;;;;28.76;65.65;98647.66;5052528;28;8957;-70
2021/08/15 00:12:54;;;;;;;;;2.00;2.00;;;;;28.76;65.67;98650.38;5052454;28;8862;-70
2021/08/15 00:15:23;;;;;;;;;2.00;2.00;;;;;28.75;65.59;98642.59;5051214;28;8843;-70
2021/08/15 00:17:51;;;;;;;;;2.00;2.00;;;;;28.81;65.50;98646.47;5052438;28;8865;-70
2021/08/15 00:20:20;;;;;;;;;2.00;2.00;;;;;28.80;65.68;98648.41;5052708;28;8998;-70
2021/08/15 00:22:49;;;;;;;;;2.00;2.00;;;;;28.64;65.56;98631.00;5051059;28;8830;-70
2021/08/15 00:25:18;;;;;;;;;2.25;2.25;;;;;28.82;65.70;98658.88;5052368;28;8901;-70
2021/08/15 00:27:47;;;;;;;;;3.00;3.00;;;;;28.82;65.24;98661.59;5052285;28;8904;-70
2021/08/15 00:30:17;;;;;;;;;1.75;1.75;;;;;28.81;65.53;98663.53;5051423;28;8907;-70
2021/08/15 00:32:46;;;;;;;;;1.75;1.75;;;;;28.85;65.30;98669.00;5051390;28;8928;-70
2021/08/15 00:35:15;;;;;;;;;2.00;2.00;;;;;28.82;65.69;98675.97;5051577;28;8838;-70
2021/08/15 00:37:43;;;;;;;;;2.00;2.00;;;;;28.88;65.42;98682.56;5051990;28;8834;-70
2021/08/15 00:40:12;;;;;;;;;2.25;2.25;;;;;28.90;65.40;98685.66;5052033;28;8897;-70
2021/08/15 00:42:41;;;;;;;;;1.00;1.00;;;;;28.94;65.37;98687.59;5051895;28;8858;-70
2021/08/15 00:45:10;;;;;;;;;1.00;1.00;;;;;28.88;65.56;98682.56;5052113;28;8851;-70
2021/08/15 00:47:39;;;;;;;;;1.20;1.20;;;;;28.91;65.30;98702.72;5052157;28;8823;-70
2021/08/15 00:50:08;;;;;;;;;0.40;0.40;;;;;28.78;65.32;98669.75;5052043;28;8945;-70
2021/08/15 00:52:37;;;;;;;;;1.40;1.40;;;;;28.89;65.39;98700.41;5051887;28;8935;-70
2021/08/15 00:55:11;;;;;;;;;2.00;2.00;;;;;28.90;65.54;98703.91;5051918;28;8964;-70
2021/08/15 00:57:44;;;;;;;;;1.60;1.60;;;;;28.93;65.40;98702.34;5050232;28;8974;-70
2021/08/15 01:00:13;;;;;;;;;2.00;2.00;;;;;28.93;65.36;98697.69;5051629;28;8953;-70
2021/08/15 01:02:47;;;;;;;;;1.40;1.40;;;;;28.94;65.23;98698.47;5051642;28;8847;-69
2021/08/15 01:05:18;;;;;;;;;2.75;2.75;;;;;29.07;65.41;98710.47;5051531;28;8847;-70
2021/08/15 01:07:46;;;;;;;;;3.50;3.50;;;;;29.11;64.58;98712.00;5051637;28;8877;-70
2021/08/15 01:10:17;;;;;;;;;3.50;3.50;;;;;29.13;64.47;98706.97;5051660;28;8878;-70
2021/08/15 01:12:46;;;;;;;;;2.00;2.00;;;;;29.13;64.18;98712.41;5051219;28;8843;-69
2021/08/15 01:15:16;;;;;;;;;2.20;2.20;;;;;29.12;64.94;98713.56;5051255;28;8966;-73
2021/08/15 01:17:45;;;;;;;;;2.00;2.00;;;;;29.10;64.31;98707.75;5050591;28;8973;-69
2021/08/15 01:20:15;;;;;;;;;2.00;2.00;;;;;29.10;64.17;98715.13;5050414;28;8961;-71
2021/08/15 01:22:46;;;;;;;;;4.00;4.00;;;;;29.09;64.21;98719.00;5049935;28;9681;-72
2021/08/15 01:25:15;;;;;;;;;2.75;2.75;;;;;29.08;64.29;98723.66;5050375;28;8843;-69
2021/08/15 01:27:45;;;;;;;;;3.00;3.00;;;;;29.06;64.26;98717.06;5049610;28;8884;-68
2021/08/15 01:30:15;;;;;;;;;2.00;2.00;;;;;29.08;64.33;98723.66;5049481;28;8920;-68
2021/08/15 01:32:45;;;;;;;;;4.00;4.00;;;;;29.08;63.91;98726.38;5049887;28;8838;-68
2021/08/15 01:35:13;;;;;;;;;3.75;3.75;;;;;29.10;64.25;98732.19;5049925;28;8853;-68
2021/08/15 01:37:42;;;;;;;;;2.00;2.00;;;;;29.06;63.88;98738.78;5049596;28;8846;-68
2021/08/15 01:40:13;;;;;;;;;2.25;2.25;;;;;29.05;64.52;98735.31;5050749;28;8948;-68
2021/08/15 01:42:41;;;;;;;;;2.00;2.00;;;;;29.07;64.37;98743.84;5051165;28;8866;-68
2021/08/15 01:45:12;;;;;;;;;2.00;2.00;;;;;29.07;63.78;98745.78;5051440;28;8892;-69
2021/08/15 01:47:41;;;;;;;;;2.00;2.00;;;;;29.06;63.98;98749.66;5054948;28;8854;-69
2021/08/15 01:50:10;;;;;;;;;2.00;2.00;;;;;29.03;63.96;98748.50;5053810;28;8901;-69
2021/08/15 01:52:39;;;;;;;;;2.00;2.00;;;;;29.01;63.83;98755.47;5053256;28;8826;-70
2021/08/15 01:55:08;;;;;;;;;3.00;3.00;;;;;29.09;63.79;98760.53;5050788;28;8917;-69
2021/08/15 01:57:36;;;;;;;;;2.60;2.60;;;;;28.91;63.39;98746.19;5053425;28;8827;-70
2021/08/15 02:00:06;;;;;;;;;3.20;3.20;;;;;29.00;63.57;98754.72;5053248;28;8862;-70
2021/08/15 02:02:35;;;;;;;;;2.75;2.75;;;;;29.06;63.54;98766.72;5053831;28;8842;-71
2021/08/15 02:05:04;;;;;;;;;2.00;2.00;;;;;29.06;63.67;98764.00;5054343;28;8847;-71
2021/08/15 02:07:32;;;;;;;;;1.50;1.50;;;;;28.93;64.20;98749.28;5054633;28;8854;-74
2021/08/15 02:10:01;;;;;;;;;2.50;2.50;;;;;29.01;63.35;98753.53;5053309;28;8855;-73
2021/08/15 02:12:29;;;;;;;;;3.00;3.00;;;;;29.11;64.46;98762.84;5053053;28;9635;-70
2021/08/15 02:14:58;;;;;;;;;3.00;3.00;;;;;29.14;63.66;98765.56;5053077;28;8907;-70
2021/08/15 02:17:27;;;;;;;;;2.00;2.00;;;;;29.18;63.85;98768.28;5051082;28;8830;-71
2021/08/15 02:19:56;;;;;;;;;2.00;2.00;;;;;29.22;63.96;98769.03;5053299;28;8862;-71
2021/08/15 02:22:24;;;;;;;;;4.00;4.00;;;;;29.22;63.42;98769.03;5051013;28;8835;-71
2021/08/15 02:24:53;;;;;;;;;2.00;2.00;;;;;29.15;63.64;98761.69;5051913;28;8830;-70
2021/08/15 02:27:22;;;;;;;;;2.00;2.00;;;;;29.21;62.86;98768.28;5052684;28;8886;-69
2021/08/15 02:29:50;;;;;;;;;2.20;2.20;;;;;29.23;63.47;98763.22;5052967;28;8892;-69
2021/08/15 02:32:19;;;;;;;;;2.80;2.80;;;;;29.28;62.72;98775.63;5051704;28;8826;-71
2021/08/15 02:34:47;;;;;;;;;2.00;2.00;;;;;29.29;62.82;98768.25;5052487;28;8842;-70
2021/08/15 02:37:17;;;;;;;;;2.40;2.00;;;;;29.28;62.76;98777.56;5053614;28;8862;-70
2021/08/15 02:39:45;;;;;;;;;1.00;1.00;;;;;29.13;62.80;98758.56;5052995;28;8847;-70
2021/08/15 02:42:14;;;;;;;;;3.80;3.00;;;;;29.32;62.85;98767.47;5053213;28;8957;-72
2021/08/15 02:44:42;;;;;;;;;2.00;2.00;;;;;29.25;62.44;98762.06;5052633;28;8930;-70
2021/08/15 02:47:11;;;;;;;;;3.25;2.50;;;;;29.31;62.85;98782.22;5052392;28;8934;-70
2021/08/15 02:49:40;;;;;;;;;2.40;2.40;;;;;29.31;62.89;98776.78;5053589;28;8945;-70
2021/08/15 02:52:09;;;;;;;;;1.40;1.40;;;;;29.26;63.16;98766.31;5052996;28;8835;-70
2021/08/15 02:54:37;;;;;;;;;2.00;2.00;;;;;29.39;62.75;98770.97;5052873;28;8912;-70
2021/08/15 02:57:06;;;;;;;;;1.20;1.20;;;;;29.45;61.41;98780.28;5052656;28;9782;-76
2021/08/15 02:59:39;;;;;;;;;1.20;1.20;;;;;29.52;61.93;98776.78;5053514;28;8854;-71
2021/08/15 03:02:09;;;;;;;;;2.20;2.20;;;;;29.58;61.11;98769.00;5052703;28;8885;-75
2021/08/15 03:04:38;;;;;;;;;2.00;2.00;;;;;29.68;60.16;98781.78;5050464;28;8851;-73
2021/08/15 03:07:06;;;;;;;;;1.20;1.20;;;;;29.75;59.82;98782.53;5052993;28;8831;-74
2021/08/15 03:09:35;;;;;;;;;1.20;1.20;;;;;29.79;60.09;98774.38;5051256;28;8839;-77
2021/08/15 03:12:05;;;;;;;;;1.00;1.00;;;;;29.92;59.67;98775.47;5051024;28;8842;-70
2021/08/15 03:14:38;;;;;;;;;1.00;1.00;;;;;29.95;59.71;98771.19;5051939;28;8927;-70
2021/08/15 03:17:07;;;;;;;;;1.40;1.40;;;;;30.08;58.97;98780.47;5051339;28;8857;-70
2021/08/15 03:19:37;;;;;;;;;1.20;1.20;;;;;30.15;59.30;98777.72;5053358;28;8842;-70
2021/08/15 03:22:07;;;;;;;;;2.60;2.60;;;;;30.19;59.93;98784.69;5053192;28;8853;-70
2021/08/15 03:24:36;;;;;;;;;2.00;2.00;;;;;30.18;60.37;98771.47;5052914;28;8849;-70
2021/08/15 03:27:05;;;;;;;;;1.60;1.60;;;;;30.22;60.09;98771.47;5053460;28;8861;-70
2021/08/15 03:29:33;;;;;;;;;1.00;1.00;;;;;30.21;60.02;98773.41;5053386;28;8850;-70
2021/08/15 03:32:02;;;;;;;;;2.00;2.00;;;;;30.19;60.41;98765.66;5053401;28;8854;-70
2021/08/15 03:34:30;;;;;;;;;1.00;1.00;;;;;30.23;60.26;98776.50;5053367;28;8843;-70
2021/08/15 03:36:59;;;;;;;;;1.40;1.40;;;;;30.27;59.79;98771.81;5053233;28;8842;-70
2021/08/15 03:39:29;;;;;;;;;2.00;2.00;;;;;30.32;60.34;98768.69;5053050;28;8851;-70
2021/08/15 03:41:59;;;;;;;;;0.20;0.20;;;;;30.30;59.59;98748.47;5053118;28;8835;-70
2021/08/15 03:44:32;;;;;;;;;2.00;2.00;;;;;30.40;59.79;98748.41;5053070;28;8858;-70
2021/08/15 03:47:00;;;;;;;;;1.00;1.00;;;;;30.50;59.32;98758.47;5053050;28;8835;-70
2021/08/15 03:49:29;;;;;;;;;0.20;0.20;;;;;30.56;58.49;98755.31;5053008;28;8869;-69
2021/08/15 03:51:58;;;;;;;;;1.00;1.00;;;;;30.62;59.02;98761.91;5052916;28;8904;-69
2021/08/15 03:54:27;;;;;;;;;2.00;2.00;;;;;30.67;59.54;98756.03;5052927;28;8838;-69
2021/08/15 03:56:56;;;;;;;;;2.00;2.00;;;;;30.71;58.45;98756.78;5053072;28;8863;-69
2021/08/15 03:59:25;;;;;;;;;2.00;2.00;;;;;30.74;59.22;98758.72;5052845;28;8858;-69
2021/08/15 04:01:53;;;;;;;;;0.80;0.80;;;;;30.78;57.81;98754.78;5052791;28;8884;-69
2021/08/15 04:04:22;;;;;;;;;1.60;1.60;;;;;30.84;58.13;98755.13;5052629;28;8878;-70
2021/08/15 04:06:50;;;;;;;;;1.00;1.00;;;;;30.83;57.49;98750.84;5052748;28;8846;-69
2021/08/15 04:09:19;;;;;;;;;1.00;1.00;;;;;30.83;58.25;98729.06;5051727;28;8877;-70
2021/08/15 04:11:47;;;;;;;;;2.00;2.00;;;;;30.99;58.48;98751.09;5052577;28;8847;-70
2021/08/15 04:14:15;;;;;;;;;1.60;1.60;;;;;31.00;57.97;98749.16;5052568;28;8850;-70
2021/08/15 04:16:44;;;;;;;;;0.00;0.00;;;;;31.08;57.24;98756.09;5052818;28;8916;-70
2021/08/15 04:19:13;;;;;;;;;0.00;0.00;;;;;31.10;56.14;98746.34;5052453;28;8940;-70
2021/08/15 04:21:41;;;;;;;;;1.00;1.00;;;;;31.18;56.29;98741.63;5052380;28;8842;-70
2021/08/15 04:24:10;;;;;;;;;0.20;0.20;;;;;31.24;57.10;98741.91;5052629;28;9008;-70
2021/08/15 04:26:43;;;;;;;;;1.00;1.00;;;;;31.29;56.73;98741.47;5052293;28;8834;-69
2021/08/15 04:29:13;;;;;;;;;1.00;1.00;;;;;31.34;56.26;98738.31;5052300;28;8842;-70
2021/08/15 04:31:42;;;;;;;;;0.00;0.00;;;;;31.37;56.08;98741.00;5052266;28;8911;-70
2021/08/15 04:34:10;;;;;;;;;1.60;1.60;;;;;31.41;56.83;98743.69;5052533;28;8842;-70
2021/08/15 04:36:39;;;;;;;;;3.60;3.60;;;;;31.41;57.79;98739.00;5052291;28;8834;-70
2021/08/15 04:39:07;;;;;;;;;1.20;1.20;;;;;31.39;57.43;98729.69;5051901;28;8966;-71
2021/08/15 04:41:36;;;;;;;;;2.00;2.00;;;;;31.35;57.19;98723.50;5052176;28;8854;-71
2021/08/15 04:44:04;;;;;;;;;1.00;1.00;;;;;31.35;56.70;98731.69;5053868;28;8854;-70
2021/08/15 04:46:33;;;;;;;;;1.00;1.00;;;;;31.34;57.21;98733.63;5052764;28;8870;-70
2021/08/15 04:49:01;;;;;;;;;1.00;1.00;;;;;31.32;58.13;98727.81;5052116;28;8977;-70
2021/08/15 04:51:30;;;;;;;;;0.40;0.40;;;;;31.29;57.83;98730.56;5052075;28;8896;-70
2021/08/15 04:53:59;;;;;;;;;1.00;1.00;;;;;31.25;57.59;98722.44;5052050;28;8897;-70
2021/08/15 04:56:27;;;;;;;;;2.00;2.00;;;;;31.23;58.33;98726.75;5052126;28;8846;-70
2021/08/15 04:58:55;;;;;;;;;0.00;0.00;;;;;31.17;58.17;98729.16;5052020;28;8964;-70
2021/08/15 05:01:24;;;;;;;;;1.00;1.00;;;;;31.08;58.42;98718.72;5051916;28;8858;-70
2021/08/15 05:03:53;;;;;;;;;1.60;1.60;;;;;31.09;57.49;98723.00;5052163;28;8937;-70
2021/08/15 05:06:21;;;;;;;;;1.00;1.00;;;;;31.04;58.52;98728.09;5052085;28;8838;-70
2021/08/15 05:08:50;;;;;;;;;1.20;1.20;;;;;31.02;57.75;98727.72;5051862;28;8912;-70
2021/08/15 05:11:19;;;;;;;;;0.80;0.80;;;;;30.95;57.43;98728.56;5050725;28;8850;-70
2021/08/15 05:13:47;;;;;;;;;0.00;0.00;;;;;31.00;56.16;98736.31;5051758;28;8839;-70
2021/08/15 05:16:16;;;;;;;;;1.80;1.80;;;;;30.99;56.36;98731.25;5051870;28;8924;-69
2021/08/15 05:18:45;;;;;;;;;1.00;1.00;;;;;30.96;56.51;98745.69;5051802;28;8850;-70
2021/08/15 05:21:13;;;;;;;;;0.80;0.80;;;;;30.95;56.90;98739.47;5053826;28;8878;-69
2021/08/15 05:23:42;;;;;;;;;1.00;1.00;;;;;30.91;55.33;98736.00;5055793;28;8838;-70
2021/08/15 05:26:10;;;;;;;;;0.80;0.80;;;;;30.85;59.29;98724.00;5055748;28;8854;-70
2021/08/15 05:28:39;;;;;;;;;1.00;1.00;;;;;30.69;58.42;98700.00;5055647;28;8919;-70
2021/08/15 05:31:07;;;;;;;;;0.00;0.00;;;;;30.66;59.35;98711.69;5055598;28;8904;-69
2021/08/15 05:33:36;;;;;;;;;0.20;0.20;;;;;30.66;57.95;98722.59;5055650;28;8830;-69
2021/08/15 05:36:05;;;;;;;;;1.20;1.20;;;;;30.57;61.50;98710.59;5055512;28;8941;-70
2021/08/15 05:38:33;;;;;;;;;1.00;1.00;;;;;30.49;59.59;98709.84;5055183;28;8879;-69
2021/08/15 05:41:02;;;;;;;;;1.40;1.40;;;;;30.39;61.46;98700.59;5055204;28;8850;-70
2021/08/15 05:43:31;;;;;;;;;0.40;0.40;;;;;30.43;61.60;98711.47;5055627;28;8862;-70
2021/08/15 05:45:59;;;;;;;;;1.00;1.00;;;;;30.26;61.25;98683.19;5055384;28;8920;-70
2021/08/15 05:48:28;;;;;;;;;1.00;1.00;;;;;30.27;61.03;98692.91;5055235;28;8919;-70
2021/08/15 05:50:56;;;;;;;;;1.40;1.00;;;;;30.23;61.84;98694.09;5055202;28;8851;-70
2021/08/15 05:53:25;;;;;;;;;0.00;0.00;;;;;30.13;62.74;98680.19;5055123;28;8838;-70
2021/08/15 05:55:54;;;;;;;;;1.00;1.00;;;;;30.15;61.98;98682.50;5055235;28;8882;-70
2021/08/15 05:58:22;;;;;;;;;1.00;1.00;;;;;30.20;60.85;98687.50;5055124;28;9622;-70
2021/08/15 06:00:51;;;;;;;;;0.00;0.00;;;;;30.14;60.74;98680.94;5055563;28;8866;-70
2021/08/15 06:03:20;;;;;;;;;0.80;0.80;;;;;30.21;60.64;98689.06;5055163;28;8842;-70
2021/08/15 06:05:48;;;;;;;;;1.00;1.00;;;;;30.16;60.55;98679.38;5054879;28;8846;-70
2021/08/15 06:08:17;;;;;;;;;0.00;0.00;;;;;30.23;59.69;98692.16;5054977;28;8838;-70
2021/08/15 06:10:46;;;;;;;;;0.00;0.00;;;;;30.25;58.55;98691.75;5055125;28;8850;-70
2021/08/15 06:13:15;;;;;;;;;0.80;0.80;;;;;30.25;59.43;98686.31;5055409;28;8940;-70
2021/08/15 06:15:43;;;;;;;;;1.00;1.00;;;;;30.25;57.48;98678.16;5054900;28;8858;-70
2021/08/15 06:18:13;;;;;;;;;0.00;0.00;;;;;30.17;58.20;98674.72;5054666;28;8930;-70
2021/08/15 06:20:42;;;;;;;;;0.00;0.00;;;;;30.22;58.73;98687.13;5054812;28;8869;-70
2021/08/15 06:23:10;;;;;;;;;0.00;0.00;;;;;30.18;58.29;98677.03;5054631;28;8850;-70
2021/08/15 06:25:39;;;;;;;;;0.60;0.60;;;;;30.14;58.79;98670.84;5055177;28;8881;-70
2021/08/15 06:28:08;;;;;;;;;0.00;0.00;;;;;30.15;59.27;98677.81;5054554;28;9652;-70
2021/08/15 06:30:36;;;;;;;;;0.20;0.20;;;;;30.15;58.89;98674.34;5055290;28;8850;-70
2021/08/15 06:33:06;;;;;;;;;0.00;0.00;;;;;30.11;59.32;98662.69;5053859;28;8862;-70
2021/08/15 06:35:34;;;;;;;;;0.00;0.00;;;;;30.12;58.13;98651.41;5054647;28;8858;-70
2021/08/15 06:38:03;;;;;;;;;1.60;1.60;;;;;30.16;59.08;98654.88;5054176;28;8960;-70
2021/08/15 06:40:31;;;;;;;;;0.00;0.00;;;;;30.14;58.44;98654.53;5054299;28;8834;-70
2021/08/15 06:43:11;;;;;;;;;0.20;0.20;;;;;30.11;59.85;98643.66;5054271;28;8842;-70
2021/08/15 06:45:40;;;;;;;;;1.00;1.00;;;;;30.12;59.00;98631.59;5054411;28;8847;-70
2021/08/15 06:48:08;;;;;;;;;1.00;1.00;;;;;30.18;59.00;98638.16;5054188;28;8834;-70
2021/08/15 06:50:37;;;;;;;;;1.00;1.00;;;;;30.10;61.33;98621.13;5054397;28;8846;-70
2021/08/15 06:53:06;;;;;;;;;1.00;1.00;;;;;30.22;60.14;98628.03;5054207;28;8944;-70
2021/08/15 06:55:35;;;;;;;;;0.20;0.20;;;;;30.34;60.81;98632.22;5054118;28;8967;-70
2021/08/15 06:58:03;;;;;;;;;0.20;0.20;;;;;30.38;61.09;98620.13;5054109;28;8945;-70
2021/08/15 07:00:32;;;;;;;;;0.00;0.00;;;;;30.38;59.77;98609.25;5052795;28;8830;-70
2021/08/15 07:03:00;;;;;;;;;0.00;0.00;;;;;30.46;60.97;98604.50;5053969;28;8958;-70
2021/08/15 07:05:29;;;;;;;;;0.80;0.80;;;;;30.49;60.64;98606.44;5053788;28;8900;-70
2021/08/15 07:07:57;;;;;;;;;0.00;0.00;;;;;30.54;58.80;98600.53;5053893;28;8878;-70
2021/08/15 07:10:27;;;;;;;;;0.00;0.00;;;;;30.58;58.53;98598.59;5053854;28;8842;-70
2021/08/15 07:12:58;;;;;;;;;1.00;1.00;;;;;30.59;62.11;98589.25;5053701;28;8900;-70
2021/08/15 07:15:30;;;;;;;;;1.00;1.00;;;;;30.72;61.59;98600.41;5053643;28;8896;-71
2021/08/15 07:17:59;;;;;;;;;1.40;1.40;;;;;30.76;59.80;98598.41;5053647;28;8853;-71
2021/08/15 07:20:29;;;;;;;;;1.00;1.00;;;;;30.81;59.95;98589.81;5053526;28;8839;-70
2021/08/15 07:22:58;;;;;;;;;0.00;0.00;;;;;30.87;60.32;98592.84;5053582;28;8842;-70
2021/08/15 07:25:30;;;;;;;;;0.60;0.60;;;;;30.87;60.58;98584.69;5053339;28;8846;-70
2021/08/15 07:28:01;;;;;;;;;1.00;1.00;;;;;30.96;59.45;98593.16;5053369;28;8857;-71
2021/08/15 07:30:33;;;;;;;;;2.00;0.00;;;;;31.01;57.80;98590.75;5053336;28;8849;-70
2021/08/15 07:33:04;;;;;;;;;0.00;0.00;;;;;31.03;57.54;98582.16;5053380;28;8865;-70
2021/08/15 07:35:36;;;;;;;;;0.00;0.00;;;;;31.08;58.76;98573.53;5053279;28;8834;-70
2021/08/15 07:38:06;;;;;;;;;0.00;0.00;;;;;31.08;59.02;98568.88;5053127;28;8843;-70
2021/08/15 07:40:35;;;;;;;;;0.00;0.00;;;;;31.09;58.87;98561.47;5053094;28;8854;-70
2021/08/15 07:43:03;;;;;;;;;0.00;0.00;;;;;30.99;58.90;98554.19;5052911;28;8831;-70
2021/08/15 07:45:33;;;;;;;;;0.00;0.00;;;;;31.03;58.44;98560.38;5053109;28;8917;-70
2021/08/15 07:48:02;;;;;;;;;0.00;0.00;;;;;31.01;58.42;98554.56;5053040;28;8917;-70
2021/08/15 07:50:41;;;;;;;;;0.00;0.00;;;;;30.86;57.32;98526.72;5053043;28;8885;-70
2021/08/15 07:53:25;;;;;;;;;0.00;0.00;;;;;31.07;56.43;98553.69;5053067;28;8846;-70
2021/08/15 07:55:56;;;;;;;;;0.00;0.00;;;;;31.12;55.55;98555.97;5052913;28;8847;-70
2021/08/15 07:58:24;;;;;;;;;0.00;0.00;;;;;31.17;55.11;98560.22;5052921;28;8955;-70
2021/08/15 08:00:54;;;;;;;;;0.00;0.00;;;;;31.21;56.41;98566.38;5052793;28;8912;-70
2021/08/15 08:03:23;;;;;;;;;0.00;0.00;;;;;31.24;57.45;98572.97;5052722;28;8835;-70
2021/08/15 08:05:52;;;;;;;;;0.00;0.00;;;;;31.30;57.15;98574.06;5052655;28;8846;-70
2021/08/15 08:08:21;;;;;;;;;0.00;0.00;;;;;31.32;55.73;98567.00;5052678;28;8912;-70
2021/08/15 08:10:53;;;;;;;;;0.00;0.00;;;;;31.35;55.96;98568.91;5052671;28;8826;-70
2021/08/15 08:13:24;;;;;;;;;0.40;0.40;;;;;31.38;55.20;98570.03;5052600;28;8847;-70
2021/08/15 08:15:52;;;;;;;;;0.00;0.00;;;;;31.31;54.86;98560.00;5052669;28;8937;-70
2021/08/15 08:18:21;;;;;;;;;0.00;0.00;;;;;31.36;53.74;98558.78;5052582;28;8839;-70
2021/08/15 08:20:50;;;;;;;;;0.00;0.00;;;;;31.34;53.64;98561.91;5052594;28;8831;-70
2021/08/15 08:23:19;;;;;;;;;0.00;0.00;;;;;31.38;53.69;98564.59;5052551;28;8932;-70
2021/08/15 08:25:48;;;;;;;;;0.00;0.00;;;;;31.34;55.10;98561.91;5052320;28;8920;-70
2021/08/15 08:28:17;;;;;;;;;0.00;0.00;;;;;31.32;54.68;98558.84;5052478;28;8849;-70
2021/08/15 08:30:45;;;;;;;;;0.00;0.00;;;;;31.38;55.35;98559.91;5052277;28;8877;-70
2021/08/15 08:33:14;;;;;;;;;0.00;0.00;;;;;31.37;55.26;98558.38;5052330;28;8912;-70
2021/08/15 08:35:43;;;;;;;;;0.00;0.00;;;;;31.33;54.58;98556.88;5052340;28;8846;-70
2021/08/15 08:38:11;;;;;;;;;0.00;0.00;;;;;31.30;55.12;98554.97;5052032;28;8850;-70
2021/08/15 08:40:42;;;;;;;;;0.00;0.00;;;;;31.28;55.24;98555.38;5052266;28;8835;-70
2021/08/15 08:43:11;;;;;;;;;0.00;0.00;;;;;31.14;54.41;98534.56;5052122;28;8886;-70
2021/08/15 08:45:41;;;;;;;;;0.00;0.00;;;;;31.31;54.38;98551.84;5052043;28;8854;-70
2021/08/15 08:48:10;;;;;;;;;0.00;0.00;;;;;31.29;54.47;98562.38;5052086;28;8851;-70
2021/08/15 08:50:39;;;;;;;;;0.00;0.00;;;;;31.06;56.98;98522.19;5052332;28;8839;-70
2021/08/15 08:53:07;;;;;;;;;0.00;0.00;;;;;31.28;56.46;98554.59;5052267;28;8846;-70
2021/08/15 08:55:39;;;;;;;;;0.00;0.00;;;;;31.26;57.05;98551.53;5051480;28;8860;-70
2021/08/15 08:58:08;;;;;;;;;0.00;0.00;;;;;31.18;56.31;98545.41;5051983;28;8839;-70
2021/08/15 09:00:37;;;;;;;;;0.00;0.00;;;;;31.24;56.00;98553.88;5051950;28;9603;-71
2021/08/15 09:03:06;;;;;;;;;0.00;0.00;;;;;31.20;56.89;98540.34;5051986;28;9088;-71
2021/08/15 09:05:36;;;;;;;;;0.00;0.00;;;;;31.23;57.26;98547.66;5052094;28;8830;-70
2021/08/15 09:08:05;;;;;;;;;0.00;0.00;;;;;31.14;57.69;98531.84;5052625;28;8877;-70
2021/08/15 09:10:38;;;;;;;;;0.00;0.00;;;;;31.20;57.16;98551.22;5052120;28;8846;-70
2021/08/15 09:13:10;;;;;;;;;1.00;1.00;;;;;31.17;57.01;98554.78;5052153;28;8858;-70
2021/08/15 09:15:39;;;;;;;;;0.00;0.00;;;;;31.18;56.27;98542.69;5052477;28;8885;-70
2021/08/15 09:18:07;;;;;;;;;0.00;0.00;;;;;31.20;55.94;98545.00;5051814;28;8949;-70
2021/08/15 09:20:40;;;;;;;;;0.00;0.00;;;;;31.19;57.04;98538.03;5051772;28;8908;-70
2021/08/15 09:23:30;;;;;;;;;0.00;0.00;;;;;31.18;58.33;98539.19;5051736;28;8839;-71
2021/08/15 09:26:15;;;;;;;;;0.00;0.00;;;;;31.17;57.25;98548.56;5051622;28;8964;-70
2021/08/15 09:28:47;;;;;;;;;0.00;0.00;;;;;31.11;57.33;98554.44;5051944;28;8842;-70
2021/08/15 09:31:24;;;;;;;;;0.00;0.00;;;;;31.04;58.51;98553.75;5051752;28;8831;-70
2021/08/15 09:33:55;;;;;;;;;0.00;0.00;;;;;30.90;58.96;98560.13;5051675;28;8900;-71
2021/08/15 09:36:33;;;;;;;;;0.00;0.00;;;;;30.82;59.38;98561.38;5051772;28;8861;-71
2021/08/15 09:39:05;;;;;;;;;0.00;0.00;;;;;30.68;59.41;98559.59;5051527;28;9611;-71
2021/08/15 09:41:36;;;;;;;;;0.00;0.00;;;;;30.58;58.81;98567.88;5050533;28;8892;-70
2021/08/15 09:44:18;;;;;;;;;0.00;0.00;;;;;30.53;58.57;98566.34;5051844;28;8851;-70
2021/08/15 09:46:58;;;;;;;;;0.00;0.00;;;;;30.47;59.28;98574.16;5051528;28;8866;-71
2021/08/15 09:49:37;;;;;;;;;0.00;0.00;;;;;30.36;58.44;98568.03;5051426;28;8850;-71
2021/08/15 09:52:09;;;;;;;;;0.00;0.00;;;;;30.36;58.50;98576.22;5051468;28;8970;-70
2021/08/15 09:54:38;;;;;;;;;0.00;0.00;;;;;30.34;58.35;98588.69;5051708;28;8847;-70
2021/08/15 09:57:10;;;;;;;;;0.00;0.00;;;;;30.34;58.41;98580.50;5051747;28;8838;-70
2021/08/15 09:59:39;;;;;;;;;0.00;0.00;;;;;30.35;58.28;98582.84;5051339;28;8831;-71
2021/08/15 10:02:13;;;;;;;;;0.00;0.00;;;;;30.37;58.41;98582.44;5051480;28;8839;-70
2021/08/15 10:04:42;;;;;;;;;0.40;0.40;;;;;30.35;58.04;98573.91;5051317;28;8924;-70
2021/08/15 10:07:11;;;;;;;;;0.00;0.00;;;;;30.33;58.26;98568.09;5053124;28;8850;-71
2021/08/15 10:09:40;;;;;;;;;0.00;0.00;;;;;30.40;58.58;98579.69;5053863;28;8877;-70
2021/08/15 10:12:09;;;;;;;;;0.00;0.00;;;;;30.35;58.64;98571.94;5055041;28;9108;-70
2021/08/15 10:14:38;;;;;;;;;0.00;0.00;;;;;30.39;58.45;98567.25;5054914;28;8916;-71
2021/08/15 10:17:12;;;;;;;;;0.00;0.00;;;;;30.43;58.43;98565.25;5053800;28;8932;-71
2021/08/15 10:19:47;;;;;;;;;0.00;0.00;;;;;30.44;58.86;98557.88;5054835;28;8842;-70
2021/08/15 10:22:24;;;;;;;;;0.00;0.00;;;;;30.43;59.17;98546.22;5054727;28;8835;-70
2021/08/15 10:24:56;;;;;;;;;0.00;0.00;;;;;30.42;58.89;98544.66;5054679;28;8931;-70
2021/08/15 10:27:39;;;;;;;;;0.00;0.00;;;;;30.41;59.27;98545.06;5054952;28;8831;-71
2021/08/15 10:30:44;;;;;;;;;0.00;0.00;;;;;30.40;59.25;98535.34;5054619;28;8842;-70
2021/08/15 10:33:17;;;;;;;;;0.00;0.00;;;;;30.31;58.69;98540.50;5054408;28;8942;-70
2021/08/15 10:36:25;;;;;;;;;0.00;0.00;;;;;30.26;59.44;98544.44;5054517;28;9611;-71
2021/08/15 10:38:56;;;;;;;;;0.00;0.00;;;;;30.25;59.17;98544.84;5054027;28;8916;-71
2021/08/15 10:41:49;;;;;;;;;0.20;0.20;;;;;30.28;59.58;98552.97;5053143;28;8982;-70
2021/08/15 10:44:19;;;;;;;;;0.00;0.00;;;;;30.30;59.22;98566.16;5054648;28;8854;-70
2021/08/15 10:47:13;;;;;;;;;0.00;0.00;;;;;30.29;59.24;98567.34;5054228;28;8889;-70
2021/08/15 10:49:56;;;;;;;;;0.00;0.00;;;;;30.29;58.83;98578.22;5054250;28;8847;-71
2021/08/15 10:52:40;;;;;;;;;0.00;0.00;;;;;30.28;58.66;98576.69;5054269;28;8846;-71
2021/08/15 10:55:09;;;;;;;;;0.00;0.00;;;;;30.25;58.46;98586.41;5054230;28;8839;-70
2021/08/15 10:58:00;;;;;;;;;0.80;0.80;;;;;30.25;58.69;98589.13;5054097;28;8850;-71
2021/08/15 11:00:47;;;;;;;;;0.00;0.00;;;;;30.21;58.98;98607.44;5054100;28;8911;-71
2021/08/15 11:03:34;;;;;;;;;0.00;0.00;;;;;30.10;58.96;98595.88;5053982;28;8928;-71
2021/08/15 11:06:04;;;;;;;;;0.00;0.00;;;;;30.11;59.00;98617.22;5053905;28;8846;-71
2021/08/15 11:08:53;;;;;;;;;0.00;0.00;;;;;30.13;58.99;98633.94;5052743;28;8826;-71
2021/08/15 11:11:34;;;;;;;;;0.00;0.00;;;;;30.11;59.43;98630.84;5054211;28;8834;-71
2021/08/15 11:14:33;;;;;;;;;0.00;0.00;;;;;30.11;59.25;98638.22;5053815;28;8842;-71
2021/08/15 11:17:14;;;;;;;;;0.00;0.00;;;;;30.09;59.43;98657.66;5053762;28;8862;-71
2021/08/15 11:19:44;;;;;;;;;0.00;0.00;;;;;30.07;59.88;98662.72;5053114;28;8851;-71
2021/08/15 11:22:28;;;;;;;;;0.20;0.20;;;;;30.06;59.36;98652.25;5053874;28;8855;-71
2021/08/15 11:25:00;;;;;;;;;0.00;0.00;;;;;30.04;59.49;98657.31;5053537;28;8847;-70
2021/08/15 11:27:30;;;;;;;;;0.00;0.00;;;;;29.99;59.69;98654.97;5053413;28;8935;-70
2021/08/15 11:30:04;;;;;;;;;0.00;0.00;;;;;29.98;59.19;98661.59;5053546;28;9645;-70
2021/08/15 11:32:34;;;;;;;;;0.00;0.00;;;;;29.95;58.93;98656.94;5053437;28;8839;-71
2021/08/15 11:35:06;;;;;;;;;0.00;0.00;;;;;29.90;58.96;98651.94;5053422;28;8847;-71
2021/08/15 11:37:51;;;;;;;;;0.00;0.00;;;;;29.91;58.92;98656.19;5053537;28;8924;-70
2021/08/15 11:40:23;;;;;;;;;0.00;0.00;;;;;29.83;59.08;98655.50;5053604;28;8877;-70
2021/08/15 11:42:59;;;;;;;;;0.00;0.00;;;;;29.89;59.35;98675.66;5053148;28;8831;-70
2021/08/15 11:45:32;;;;;;;;;0.00;0.00;;;;;29.87;58.94;98664.41;5053115;28;8822;-70
2021/08/15 11:48:13;;;;;;;;;0.00;0.00;;;;;29.85;59.35;98670.25;5053348;28;8847;-70
2021/08/15 11:50:51;;;;;;;;;0.00;0.00;;;;;29.83;59.50;98675.28;5053051;28;8842;-70
2021/08/15 11:53:25;;;;;;;;;0.00;0.00;;;;;29.78;59.24;98675.72;5053070;28;8854;-70
2021/08/15 11:55:56;;;;;;;;;0.00;0.00;;;;;29.80;59.28;98684.25;5053244;28;8884;-70
2021/08/15 11:58:25;;;;;;;;;0.40;0.40;;;;;29.83;59.01;98701.72;5052984;28;8846;-71